MDT,Max TemperatureF,Mean TemperatureF,Min TemperatureF,Max Dew PointF,MeanDew PointF,Min DewpointF,Max Humidity, Mean Humidity, Min Humidity, Max Sea Level PressureIn, Mean Sea Level PressureIn, Min Sea Level PressureIn, Max VisibilityMiles, Mean VisibilityMiles, Min VisibilityMiles, Max Wind SpeedMPH, Mean Wind SpeedMPH, Max Gust SpeedMPH,PrecipitationIn, CloudCover, Events, WindDirDegrees
2013-3-1,52,32,12,18,12,2,71,45,22,30.47,30.38,30.33,10,10,8,17,5,24,0.00,0,,332
2013-3-2,63,40,18,21,14,9,85,46,13,30.45,30.30,30.18,10,10,10,10,2,,0.00,0,,234
2013-3-3,53,35,17,28,15,10,74,42,19,30.14,29.98,29.79,10,10,10,20,6,28,0.00,3,,247
2013-3-4,54,40,23,26,18,16,74,43,25,30.11,29.88,29.78,10,10,10,15,7,23,0.00,4,,253
2013-3-5,55,34,12,19,12,4,88,45,14,30.28,30.16,30.07,10,10,10,9,1,,0.00,0,,194
2013-3-6,60,39,18,20,11,5,74,39,12,30.11,30.00,29.91,10,10,10,18,4,28,0.00,0,,217
2013-3-7,60,39,18,19,12,3,74,36,11,30.04,29.92,29.83,10,10,10,18,6,32,0.00,0,,228
2013-3-8,46,35,24,34,28,15,96,81,35,29.96,29.79,29.66,10,6,0,28,7,47,0.29,7,Fog-Rain-Snow,206
2013-3-9,33,28,24,27,23,19,88,80,72,30.01,29.87,29.74,10,9,2,18,10,22,0.00,8,Snow,252
2013-3-10,44,34,24,24,19,12,81,57,34,30.20,30.08,29.99,10,10,10,13,5,21,0.00,0,,352
2013-3-11,55,36,18,22,17,10,89,51,18,30.21,30.13,30.05,10,10,10,14,3,20,0.00,0,,306
2013-3-12,62,42,21,22,20,18,85,48,19,30.23,30.14,30.05,10,10,10,13,3,17,0.00,0,,16
2013-3-13,66,42,21,25,19,17,89,45,16,30.33,30.25,30.18,10,10,10,9,2,,0.00,0,,4
2013-3-14,72,45,21,23,16,11,82,41,11,30.35,30.24,30.15,10,10,10,6,1,,0.00,0,,155
2013-3-15,73,48,24,22,17,8,77,37,8,30.18,30.05,29.86,10,10,10,17,3,25,0.00,0,,242
2013-3-16,64,50,35,37,26,20,92,47,20,30.03,29.83,29.72,10,10,4,21,7,40,0.06,2,Rain,268
2013-3-17,61,44,28,33,15,-9,96,45,7,29.82,29.77,29.69,10,10,8,28,7,41,0.00,1,,277
2013-3-18,59,44,28,11,4,-4,47,22,9,29.97,29.88,29.77,10,10,10,20,8,32,0.00,0,,282
2013-3-19,55,40,25,20,15,7,69,39,20,30.18,30.03,29.91,10,10,10,14,3,25,0.00,3,,341
2013-3-20,59,39,19,24,19,15,81,45,20,30.19,30.02,29.78,10,10,10,21,4,29,0.00,2,,235
2013-3-21,63,50,33,27,14,-3,60,29,8,29.73,29.66,29.58,10,10,10,23,9,32,0.00,1,,256
2013-3-22,57,37,17,14,5,-14,65,29,8,29.81,29.70,29.62,10,10,10,26,7,37,0.00,3,,254
2013-3-23,37,26,16,7,-8,-19,46,23,9,30.11,29.89,29.65,10,10,10,21,8,31,0.00,0,,320
2013-3-24,48,28,9,0,-5,-8,56,26,11,30.17,30.05,29.94,10,10,10,17,4,25,0.00,0,,287
2013-3-25,53,31,10,8,3,-4,59,33,17,30.17,30.09,30.05,10,10,10,15,2,22,0.00,0,,319
2013-3-26,62,41,21,13,7,1,55,29,10,30.08,29.98,29.88,10,10,10,18,4,28,0.00,0,,222
2013-3-27,61,40,21,15,10,3,60,27,10,30.01,29.93,29.85,10,10,10,17,4,26,0.00,0,,221
2013-3-28,64,44,25,17,13,9,55,28,14,30.20,30.02,29.92,10,10,2,18,5,26,0.00,0,,239
2013-3-29,66,48,30,20,15,11,59,30,12,30.15,30.06,30.00,10,10,10,16,2,29,0.00,0,,277
2013-3-30,64,44,25,23,17,11,60,34,16,30.16,30.05,29.98,10,10,10,15,2,20,0.00,3,,231
2013-3-31,68,46,25,24,20,17,78,39,16,30.09,29.97,29.86,10,10,10,14,3,22,0.00,3,,233